createdAt,value
2022-12-29T00:00:14.842Z,99586.34
2022-12-29T00:02:41.702Z,99573.09
2022-12-29T00:05:08.439Z,99554.63
2022-12-29T00:07:34.947Z,99606.50
2022-12-29T00:10:01.369Z,99587.13
2022-12-29T00:12:47.641Z,99597.84
2022-12-29T00:15:32.854Z,99574.16
2022-12-29T00:17:59.205Z,99566.44
2022-12-29T00:20:44.186Z,99575.19
2022-12-29T00:23:28.858Z,99562.09
2022-12-29T00:26:13.642Z,99581.75
2022-12-29T00:28:58.991Z,99535.94
2022-12-29T00:31:43.896Z,99535.06
2022-12-29T00:34:30.531Z,99574.53
2022-12-29T00:36:57.472Z,99526.50
2022-12-29T00:39:42.389Z,99509.41
2022-12-29T00:42:28.226Z,99555.50
2022-12-29T00:44:54.752Z,99528.50
2022-12-29T00:47:21.080Z,99506.00
2022-12-29T00:49:47.443Z,99532.09
2022-12-29T00:52:14.537Z,99500.34
2022-12-29T00:54:42.077Z,99457.19
2022-12-29T00:57:10.458Z,99518.72
2022-12-29T00:59:38.695Z,99538.34
2022-12-29T01:02:05.651Z,99540.75
2022-12-29T01:04:32.494Z,99546.66
2022-12-29T01:06:59.494Z,99498.63
2022-12-29T01:09:44.482Z,99512.41
2022-12-29T01:12:11.210Z,99557.56
2022-12-29T01:14:38.792Z,99529.84
2022-12-29T01:17:05.737Z,99519.22
2022-12-29T01:19:32.176Z,99516.09
2022-12-29T01:21:58.729Z,99486.31
2022-12-29T01:24:26.865Z,99427.03
2022-12-29T01:26:53.335Z,99535.50
2022-12-29T01:29:19.725Z,99529.97
2022-12-29T01:31:46.691Z,99480.25
2022-12-29T01:34:14.002Z,99490.84
2022-12-29T01:36:40.353Z,99500.75
2022-12-29T01:39:07.770Z,99497.03
2022-12-29T01:41:34.264Z,99423.41
2022-12-29T01:44:02.573Z,99518.19
2022-12-29T01:46:31.049Z,99481.63
2022-12-29T01:49:19.993Z,99507.28
2022-12-29T01:51:53.281Z,99517.19
2022-12-29T01:54:41.728Z,99480.34
2022-12-29T01:57:14.366Z,99517.16
2022-12-29T01:59:46.936Z,99532.75
2022-12-29T02:02:13.730Z,99482.47
2022-12-29T02:04:46.472Z,99498.06
2022-12-29T02:07:19.092Z,99499.69
2022-12-29T02:09:49.124Z,99507.09
2022-12-29T02:12:15.939Z,99486.47
2022-12-29T02:14:44.749Z,99483.19
2022-12-29T02:17:27.850Z,99471.84
2022-12-29T02:20:11.795Z,99475.66
2022-12-29T02:22:47.314Z,99481.00
2022-12-29T02:25:20.850Z,99491.97
2022-12-29T02:28:02.028Z,99470.69
2022-12-29T02:30:34.458Z,99502.72
2022-12-29T02:33:32.219Z,99483.06
2022-12-29T02:36:31.364Z,99428.09
2022-12-29T02:39:13.774Z,99488.81
2022-12-29T02:42:15.007Z,99477.50
2022-12-29T02:45:02.906Z,99478.91
2022-12-29T02:47:42.408Z,99471.03
2022-12-29T02:50:21.976Z,99444.16
2022-12-29T02:52:53.740Z,99481.09
2022-12-29T02:55:20.115Z,99400.41
2022-12-29T02:57:46.502Z,99345.81
2022-12-29T03:00:18.081Z,99378.44
2022-12-29T03:03:06.363Z,99474.28
2022-12-29T03:05:45.040Z,99477.78
2022-12-29T03:08:35.665Z,99465.81
2022-12-29T03:11:31.954Z,99442.91
2022-12-29T03:14:28.324Z,99409.59
2022-12-29T03:17:00.585Z,99441.66
2022-12-29T03:19:39.044Z,99426.78
2022-12-29T03:22:27.796Z,99452.84
2022-12-29T03:25:16.825Z,99332.88
2022-12-29T03:27:57.995Z,99429.16
2022-12-29T03:30:25.743Z,99405.44
2022-12-29T03:33:02.788Z,99448.97
2022-12-29T03:35:32.425Z,99415.28
2022-12-29T03:38:14.371Z,99426.91
2022-12-29T03:40:45.696Z,99385.81
2022-12-29T03:43:13.773Z,99363.94
2022-12-29T03:45:40.606Z,99385.66
2022-12-29T03:48:07.012Z,99384.72
2022-12-29T03:50:33.668Z,99402.91
2022-12-29T03:53:00.132Z,99394.38
2022-12-29T03:55:26.575Z,99404.16
2022-12-29T03:57:52.996Z,99323.47
2022-12-29T04:00:19.355Z,99413.03
2022-12-29T04:02:45.892Z,99355.25
2022-12-29T04:05:12.366Z,99399.31
2022-12-29T04:07:40.874Z,99385.31
2022-12-29T04:10:07.700Z,99422.25
2022-12-29T04:12:34.097Z,99408.63
2022-12-29T04:15:00.611Z,99365.34
2022-12-29T04:17:26.986Z,99401.22
2022-12-29T04:20:13.336Z,99403.03
2022-12-29T04:22:40.889Z,99415.75
2022-12-29T04:25:07.769Z,99417.41
2022-12-29T04:27:34.188Z,99415.44
2022-12-29T04:30:00.968Z,99319.25
2022-12-29T04:32:27.294Z,99437.66
2022-12-29T04:34:53.686Z,99432.88
2022-12-29T04:37:20.025Z,99369.91
2022-12-29T04:39:46.346Z,99356.44
2022-12-29T04:42:12.667Z,99387.44
2022-12-29T04:44:44.913Z,99440.31
2022-12-29T04:47:11.636Z,99450.75
2022-12-29T04:49:38.018Z,99428.34
2022-12-29T04:52:05.047Z,99411.25
2022-12-29T04:54:31.379Z,99399.56
2022-12-29T04:56:57.707Z,99415.75
2022-12-29T04:59:24.289Z,99431.84
2022-12-29T05:01:50.710Z,99401.16
2022-12-29T05:04:17.152Z,99418.38
2022-12-29T05:06:43.557Z,99453.59
2022-12-29T05:09:10.007Z,99426.72
2022-12-29T05:11:36.355Z,99427.94
2022-12-29T05:14:02.692Z,99419.19
2022-12-29T05:16:29.075Z,99438.47
2022-12-29T05:18:55.676Z,99355.31
2022-12-29T05:21:21.993Z,99455.41
2022-12-29T05:23:48.336Z,99439.53
2022-12-29T05:26:14.698Z,99379.94
2022-12-29T05:28:41.105Z,99402.25
2022-12-29T05:31:07.486Z,99415.28
2022-12-29T05:33:34.042Z,99458.06
2022-12-29T05:36:08.142Z,99477.97
2022-12-29T05:38:35.067Z,99466.66
2022-12-29T05:41:01.732Z,99492.06
2022-12-29T05:43:28.119Z,99463.47
2022-12-29T05:45:55.227Z,99434.69
2022-12-29T05:48:21.886Z,99394.84
2022-12-29T05:50:49.608Z,99484.56
2022-12-29T05:53:16.140Z,99445.72
2022-12-29T05:55:48.491Z,99469.72
2022-12-29T05:58:16.585Z,99489.88
2022-12-29T06:00:44.111Z,99286.63
2022-12-29T06:03:10.738Z,99459.75
2022-12-29T06:05:37.235Z,99361.34
2022-12-29T06:08:04.300Z,99490.50
2022-12-29T06:10:30.634Z,99492.94
2022-12-29T06:12:57.016Z,99380.16
2022-12-29T06:15:23.351Z,99511.41
2022-12-29T06:17:49.707Z,99497.22
2022-12-29T06:20:16.111Z,99486.81
2022-12-29T06:22:43.915Z,99410.78
2022-12-29T06:25:10.363Z,99403.44
2022-12-29T06:27:36.692Z,99481.28
2022-12-29T06:30:03.819Z,99522.41
2022-12-29T06:32:30.196Z,99434.97
2022-12-29T06:34:56.553Z,99520.88
2022-12-29T06:37:22.858Z,99533.94
2022-12-29T06:39:49.227Z,99442.94
2022-12-29T06:42:15.621Z,99436.44
2022-12-29T06:44:41.972Z,99463.28
2022-12-29T06:47:08.704Z,99499.47
2022-12-29T06:49:35.131Z,99413.91
2022-12-29T06:52:09.080Z,99514.88
2022-12-29T06:54:39.055Z,99434.81
2022-12-29T06:57:05.425Z,99434.88
2022-12-29T06:59:31.770Z,99487.47
2022-12-29T07:01:58.372Z,99556.31
2022-12-29T07:04:25.355Z,99512.81
2022-12-29T07:06:51.707Z,99560.19
2022-12-29T07:09:18.072Z,99509.25
2022-12-29T07:11:44.430Z,99472.75
2022-12-29T07:14:12.127Z,99478.88
2022-12-29T07:16:38.729Z,99566.19
2022-12-29T07:19:05.444Z,99498.91
2022-12-29T07:21:31.907Z,99569.81
2022-12-29T07:23:58.269Z,99570.38
2022-12-29T07:26:25.128Z,99562.31
2022-12-29T07:28:51.868Z,99595.25
2022-12-29T07:31:20.842Z,99596.97
2022-12-29T07:33:48.607Z,99611.00
2022-12-29T07:36:16.738Z,99607.28
2022-12-29T07:38:44.098Z,99581.63
2022-12-29T07:41:10.672Z,99602.75
2022-12-29T07:43:37.203Z,99508.00
2022-12-29T07:46:03.714Z,99523.97
2022-12-29T07:48:30.226Z,99595.28
2022-12-29T07:50:56.860Z,99492.94
2022-12-29T07:53:23.224Z,99584.41
2022-12-29T07:55:49.592Z,99608.50
2022-12-29T07:58:15.952Z,99597.16
2022-12-29T08:00:42.358Z,99539.25
2022-12-29T08:03:08.696Z,99516.47
2022-12-29T08:05:35.381Z,99561.09
2022-12-29T08:08:02.186Z,99546.19
2022-12-29T08:10:28.600Z,99545.19
2022-12-29T08:12:55.001Z,99604.91
2022-12-29T08:15:24.438Z,99600.47
2022-12-29T08:17:53.517Z,99629.47
2022-12-29T08:20:19.901Z,99544.00
2022-12-29T08:22:46.399Z,99650.91
2022-12-29T08:25:12.868Z,99617.81
2022-12-29T08:27:39.353Z,99607.78
2022-12-29T08:30:06.361Z,99631.47
2022-12-29T08:32:33.079Z,99667.28
2022-12-29T08:34:59.399Z,99668.47
2022-12-29T08:37:30.850Z,99623.69
2022-12-29T08:39:58.704Z,99645.28
2022-12-29T08:42:26.003Z,99647.66
2022-12-29T08:44:52.332Z,99639.00
2022-12-29T08:47:18.669Z,99555.81
2022-12-29T08:49:45.072Z,99572.03
2022-12-29T08:52:11.447Z,99659.28
2022-12-29T08:54:37.917Z,99569.63
2022-12-29T08:57:04.243Z,99576.09
2022-12-29T08:59:30.644Z,99645.41
2022-12-29T09:01:57.153Z,99676.72
2022-12-29T09:04:24.746Z,99657.72
2022-12-29T09:06:51.328Z,99675.13
2022-12-29T09:09:17.993Z,99599.41
2022-12-29T09:11:45.116Z,99665.03
2022-12-29T09:14:11.726Z,99574.41
2022-12-29T09:16:38.467Z,99604.53
2022-12-29T09:19:07.534Z,99672.28
2022-12-29T09:21:33.888Z,99691.94
2022-12-29T09:24:00.365Z,99573.72
2022-12-29T09:26:26.938Z,99681.38
2022-12-29T09:28:53.322Z,99699.59
2022-12-29T09:31:19.793Z,99636.09
2022-12-29T09:33:46.226Z,99535.28
2022-12-29T09:36:22.614Z,99535.59
2022-12-29T09:38:49.032Z,99687.19
2022-12-29T09:41:25.239Z,99674.97
2022-12-29T09:44:14.141Z,99712.78
2022-12-29T09:46:51.476Z,99687.63
2022-12-29T09:49:30.033Z,99707.66
2022-12-29T09:52:02.959Z,99702.16
2022-12-29T09:55:03.150Z,99723.53
2022-12-29T09:57:40.840Z,99675.47
2022-12-29T10:00:34.425Z,99721.91
2022-12-29T10:03:07.059Z,99729.28
2022-12-29T10:06:02.366Z,99694.41
2022-12-29T10:08:52.876Z,99680.00
2022-12-29T10:11:33.184Z,99724.72
2022-12-29T10:14:13.906Z,99707.84
2022-12-29T10:17:01.254Z,99681.59
2022-12-29T10:19:44.754Z,99661.50
2022-12-29T10:22:20.200Z,99736.50
2022-12-29T10:24:50.151Z,99739.84
2022-12-29T10:27:17.897Z,99721.81
2022-12-29T10:29:53.055Z,99700.19
2022-12-29T10:32:33.361Z,99724.97
2022-12-29T10:35:07.012Z,99751.47
2022-12-29T10:37:51.515Z,99732.44
2022-12-29T10:40:43.447Z,99745.75
2022-12-29T10:43:43.283Z,99723.38
2022-12-29T10:46:14.217Z,99727.03
2022-12-29T10:48:40.730Z,99732.28
2022-12-29T10:51:09.512Z,99715.91
2022-12-29T10:53:44.594Z,99753.69
2022-12-29T10:56:35.835Z,99605.28
2022-12-29T10:59:14.263Z,99705.28
2022-12-29T11:02:00.970Z,99720.78
2022-12-29T11:04:51.883Z,99780.34
2022-12-29T11:07:26.651Z,99773.03
2022-12-29T11:09:53.881Z,99770.00
2022-12-29T11:12:32.043Z,99793.41
2022-12-29T11:15:17.064Z,99790.81
2022-12-29T11:17:49.371Z,99720.66
2022-12-29T11:20:36.458Z,99819.03
2022-12-29T11:23:05.118Z,99787.22
2022-12-29T11:25:32.088Z,99720.91
2022-12-29T11:28:00.275Z,99826.91
2022-12-29T11:30:30.518Z,99783.47
2022-12-29T11:32:57.843Z,99743.59
2022-12-29T11:35:41.785Z,99830.16
2022-12-29T11:38:26.496Z,99759.88
2022-12-29T11:40:52.911Z,99834.97
2022-12-29T11:43:31.820Z,99785.44
2022-12-29T11:46:08.067Z,99751.50
2022-12-29T11:48:40.355Z,99739.91
2022-12-29T11:51:08.000Z,99699.84
2022-12-29T11:53:45.012Z,99740.16
2022-12-29T11:56:17.847Z,99804.69
2022-12-29T11:58:44.734Z,99836.03
2022-12-29T12:01:19.265Z,99848.38
2022-12-29T12:03:57.321Z,99806.78
2022-12-29T12:06:25.169Z,99714.69
2022-12-29T12:08:58.804Z,99750.47
2022-12-29T12:11:37.125Z,99871.41
2022-12-29T12:14:13.227Z,99839.03
2022-12-29T12:16:49.660Z,99754.16
2022-12-29T12:19:39.811Z,99874.28
2022-12-29T12:22:16.978Z,99810.88
2022-12-29T12:24:53.052Z,99832.59
2022-12-29T12:27:24.527Z,99869.81
2022-12-29T12:30:15.132Z,99858.97
2022-12-29T12:33:05.629Z,99843.25
2022-12-29T12:35:41.076Z,99876.41
2022-12-29T12:38:24.489Z,99863.34
2022-12-29T12:41:14.358Z,99864.69
2022-12-29T12:43:55.854Z,99875.94
2022-12-29T12:46:58.926Z,99823.97
2022-12-29T12:49:53.053Z,99887.53
2022-12-29T12:52:48.647Z,99873.97
2022-12-29T12:55:36.503Z,99870.25
2022-12-29T12:58:36.651Z,99875.59
2022-12-29T13:01:15.340Z,99850.75
2022-12-29T13:03:55.421Z,99889.28
2022-12-29T13:06:59.256Z,99854.72
2022-12-29T13:09:33.359Z,99873.09
2022-12-29T13:12:24.629Z,99832.97
2022-12-29T13:14:50.895Z,99889.03
2022-12-29T13:17:35.715Z,99854.63
2022-12-29T13:20:18.418Z,99889.97
2022-12-29T13:23:05.525Z,99898.63
2022-12-29T13:25:51.245Z,99877.78
2022-12-29T13:28:36.671Z,99862.28
2022-12-29T13:31:24.001Z,99755.16
2022-12-29T13:33:56.899Z,99808.66
2022-12-29T13:36:46.597Z,99876.66
2022-12-29T13:39:27.358Z,99875.22
2022-12-29T13:41:57.701Z,99882.88
2022-12-29T13:44:23.976Z,99893.63
2022-12-29T13:46:50.690Z,99873.19
2022-12-29T13:49:22.726Z,99841.78
2022-12-29T13:51:52.853Z,99896.91
2022-12-29T13:54:37.932Z,99919.38
2022-12-29T13:57:38.320Z,99917.53
2022-12-29T14:00:08.652Z,99891.44
2022-12-29T14:02:47.319Z,99921.06
2022-12-29T14:05:22.716Z,99924.63
2022-12-29T14:07:57.570Z,99820.97
2022-12-29T14:10:38.862Z,99805.59
2022-12-29T14:13:05.168Z,99932.50
2022-12-29T14:15:31.621Z,99915.03
2022-12-29T14:18:29.165Z,99923.88
2022-12-29T14:21:00.604Z,99929.25
2022-12-29T14:23:39.244Z,99901.84
2022-12-29T14:26:05.540Z,99932.53
2022-12-29T14:28:34.425Z,99918.38
2022-12-29T14:31:02.889Z,99914.59
2022-12-29T14:33:31.812Z,99896.09
2022-12-29T14:36:22.538Z,99912.28
2022-12-29T14:38:57.874Z,99918.00
2022-12-29T14:41:37.856Z,99907.41
2022-12-29T14:44:21.754Z,99907.75
2022-12-29T14:46:53.949Z,99942.91
2022-12-29T14:49:24.222Z,99945.72
2022-12-29T14:51:54.590Z,99926.44
2022-12-29T14:54:39.184Z,99950.22
2022-12-29T14:57:07.015Z,99959.75
2022-12-29T14:59:35.512Z,99929.72
2022-12-29T15:02:05.835Z,99904.81
2022-12-29T15:04:34.465Z,99943.13
2022-12-29T15:07:04.269Z,99846.84
2022-12-29T15:09:34.557Z,99934.78
2022-12-29T15:12:16.485Z,99960.50
2022-12-29T15:14:55.310Z,99914.38
2022-12-29T15:17:30.840Z,99905.41
2022-12-29T15:19:59.265Z,99938.00
2022-12-29T15:22:27.032Z,99923.94
2022-12-29T15:28:04.608Z,99817.88
2022-12-29T15:30:31.379Z,99942.78
2022-12-29T15:32:57.940Z,99903.66
2022-12-29T15:35:37.098Z,99957.88
2022-12-29T15:38:30.374Z,99972.09
2022-12-29T15:41:54.237Z,99953.84
2022-12-29T15:44:29.583Z,99960.06
2022-12-29T15:46:56.019Z,99975.69
2022-12-29T15:49:28.841Z,99763.38
2022-12-29T15:51:58.702Z,99917.16
2022-12-29T15:54:27.409Z,99796.94
2022-12-29T15:56:53.838Z,99855.75
2022-12-29T15:59:28.947Z,99891.97
2022-12-29T16:02:00.175Z,99964.81
2022-12-29T16:04:33.646Z,99911.56
2022-12-29T16:07:52.678Z,99997.88
2022-12-29T16:10:37.830Z,99994.53
2022-12-29T16:13:13.596Z,99903.78
2022-12-29T16:15:40.059Z,99902.97
2022-12-29T16:18:06.435Z,99977.69
2022-12-29T16:20:41.331Z,99967.28
2022-12-29T16:23:23.477Z,99964.22
2022-12-29T16:25:50.123Z,99834.88
2022-12-29T16:28:20.938Z,99856.44
2022-12-29T16:30:47.490Z,100016.91
2022-12-29T16:33:37.607Z,99964.38
2022-12-29T16:36:23.434Z,99991.00
2022-12-29T16:38:50.037Z,99922.91
2022-12-29T16:41:30.879Z,99989.56
2022-12-29T16:44:23.608Z,100031.88
2022-12-29T16:47:03.327Z,99979.25
2022-12-29T16:49:32.787Z,99909.66
2022-12-29T16:51:59.647Z,99999.13
2022-12-29T16:54:35.289Z,100023.75
2022-12-29T16:57:03.462Z,99823.41
2022-12-29T16:59:39.327Z,100024.94
2022-12-29T17:02:26.716Z,100046.88
2022-12-29T17:04:53.840Z,100018.63
2022-12-29T17:07:23.905Z,100046.41
2022-12-29T17:09:51.205Z,100028.63
2022-12-29T17:12:24.958Z,99905.53
2022-12-29T17:15:14.956Z,100059.34
2022-12-29T17:17:50.213Z,100069.97
2022-12-29T17:20:29.533Z,100090.66
2022-12-29T17:22:56.759Z,100085.69
2022-12-29T17:25:31.917Z,100097.41
2022-12-29T17:28:05.123Z,100040.72
2022-12-29T17:30:34.714Z,99982.91
2022-12-29T17:33:08.778Z,100097.41
2022-12-29T17:35:35.212Z,100082.31
2022-12-29T17:38:01.607Z,99909.31
2022-12-29T17:40:31.052Z,100071.03
2022-12-29T17:42:59.554Z,100111.56
2022-12-29T17:45:30.994Z,100096.59
2022-12-29T17:48:01.944Z,100075.22
2022-12-29T17:50:30.647Z,100072.19
2022-12-29T17:53:04.996Z,100117.78
2022-12-29T17:55:37.526Z,100124.28
2022-12-29T17:58:19.825Z,100024.78
2022-12-29T18:00:48.598Z,100080.69
2022-12-29T18:03:17.384Z,100028.22
2022-12-29T18:05:44.678Z,100076.41
2022-12-29T18:08:12.352Z,100041.50
2022-12-29T18:10:39.972Z,100136.16
2022-12-29T18:13:07.194Z,100108.06
2022-12-29T18:15:36.450Z,100057.56
2022-12-29T18:18:14.688Z,100124.00
2022-12-29T18:20:43.051Z,100069.16
2022-12-29T18:23:23.808Z,100126.75
2022-12-29T18:26:04.135Z,100126.69
2022-12-29T18:28:30.725Z,100017.59
2022-12-29T18:30:59.560Z,100007.81
2022-12-29T18:33:26.975Z,100015.47
2022-12-29T18:36:03.601Z,100126.44
2022-12-29T18:38:30.059Z,100115.16
2022-12-29T18:40:57.633Z,100143.50
2022-12-29T18:43:24.848Z,100066.22
2022-12-29T18:45:51.357Z,100059.34
2022-12-29T18:48:19.591Z,100016.63
2022-12-29T18:50:47.425Z,100032.50
2022-12-29T18:53:22.167Z,100142.09
2022-12-29T18:55:48.971Z,100072.25
2022-12-29T18:58:15.855Z,100141.72
2022-12-29T19:00:42.986Z,100033.38
2022-12-29T19:03:12.818Z,100124.19
2022-12-29T19:05:41.171Z,99994.69
2022-12-29T19:08:08.562Z,100000.44
2022-12-29T19:10:35.406Z,99996.13
2022-12-29T19:13:02.307Z,100022.47
2022-12-29T19:15:32.061Z,100021.06
2022-12-29T19:18:41.799Z,100173.78
2022-12-29T19:20:49.441Z,100185.19
2022-12-29T19:23:18.474Z,100160.25
2022-12-29T19:25:45.421Z,100095.44
2022-12-29T19:28:23.956Z,100175.50
2022-12-29T19:30:52.710Z,100167.78
2022-12-29T19:33:24.083Z,100102.94
2022-12-29T19:35:51.538Z,100042.63
2022-12-29T19:38:19.201Z,100165.44
2022-12-29T19:40:48.937Z,100158.16
2022-12-29T19:43:15.749Z,100104.78
2022-12-29T19:45:43.556Z,100106.88
2022-12-29T19:48:15.999Z,100084.63
2022-12-29T19:50:43.414Z,100177.06
2022-12-29T19:53:10.342Z,100137.53
2022-12-29T19:55:37.020Z,100201.03
2022-12-29T19:58:03.823Z,100211.13
2022-12-29T20:00:30.354Z,100191.22
2022-12-29T20:02:56.916Z,100141.06
2022-12-29T20:05:23.565Z,100198.91
2022-12-29T20:07:49.946Z,100212.84
2022-12-29T20:10:16.391Z,100218.06
2022-12-29T20:12:42.865Z,100202.31
2022-12-29T20:15:16.431Z,100197.78
2022-12-29T20:18:12.682Z,100156.88
2022-12-29T20:20:29.348Z,100242.13
2022-12-29T20:22:56.626Z,100172.84
2022-12-29T20:28:09.695Z,100138.94
2022-12-29T20:30:36.642Z,100210.94
2022-12-29T20:33:08.029Z,100246.50
2022-12-29T20:35:35.721Z,100217.09
2022-12-29T20:38:02.121Z,100245.13
2022-12-29T20:40:28.648Z,100171.81
2022-12-29T20:42:55.074Z,100141.91
2022-12-29T20:45:21.728Z,100062.78
2022-12-29T20:47:48.140Z,100259.44
2022-12-29T20:50:15.136Z,100250.84
2022-12-29T20:52:41.559Z,100164.19
2022-12-29T20:55:08.172Z,100189.44
2022-12-29T20:57:57.051Z,100122.22
2022-12-29T21:00:22.791Z,100225.16
2022-12-29T21:02:50.061Z,100271.88
2022-12-29T21:05:25.283Z,100076.97
2022-12-29T21:07:53.306Z,100253.94
2022-12-29T21:10:20.312Z,100297.09
2022-12-29T21:12:46.674Z,100253.94
2022-12-29T21:15:15.032Z,100253.84
2022-12-29T21:17:43.134Z,100237.22
2022-12-29T21:20:10.862Z,100176.50
2022-12-29T21:22:37.285Z,100242.25
2022-12-29T21:25:03.854Z,100231.69
2022-12-29T21:27:30.248Z,100258.81
2022-12-29T21:29:57.922Z,100159.59
2022-12-29T21:32:24.436Z,100273.91
2022-12-29T21:34:50.790Z,100260.88
2022-12-29T21:37:23.267Z,100157.31
2022-12-29T21:39:49.980Z,100244.69
2022-12-29T21:42:16.346Z,100257.34
2022-12-29T21:45:01.225Z,100246.72
2022-12-29T21:47:47.572Z,100238.56
2022-12-29T21:50:13.971Z,100218.47
2022-12-29T21:52:40.377Z,100252.13
2022-12-29T21:55:08.845Z,100211.50
2022-12-29T21:57:54.868Z,100272.50
2022-12-29T22:00:39.572Z,100243.91
2022-12-29T22:03:24.585Z,100257.28
2022-12-29T22:06:10.191Z,100259.44
2022-12-29T22:08:55.907Z,100239.41
2022-12-29T22:11:40.698Z,100262.88
2022-12-29T22:14:07.142Z,100268.47
2022-12-29T22:16:33.589Z,100158.13
2022-12-29T22:19:00.039Z,100298.72
2022-12-29T22:21:26.607Z,100180.41
2022-12-29T22:23:53.230Z,100298.88
2022-12-29T22:26:19.629Z,100276.84
2022-12-29T22:28:47.777Z,100309.13
2022-12-29T22:31:32.538Z,100282.50
2022-12-29T22:34:01.616Z,100304.09
2022-12-29T22:36:28.586Z,100313.75
2022-12-29T22:38:55.030Z,100312.06
2022-12-29T22:41:22.089Z,100294.38
2022-12-29T22:43:48.414Z,100315.06
2022-12-29T22:46:14.824Z,100316.22
2022-12-29T22:48:41.491Z,100292.06
2022-12-29T22:51:07.989Z,100328.94
2022-12-29T22:53:34.441Z,100343.50
2022-12-29T22:56:02.629Z,100244.69
2022-12-29T22:58:28.977Z,100328.88
2022-12-29T23:00:55.300Z,100349.00
2022-12-29T23:03:21.730Z,100319.94
2022-12-29T23:05:59.668Z,100330.44
2022-12-29T23:08:27.752Z,100355.13
2022-12-29T23:10:54.268Z,100345.34
2022-12-29T23:13:20.737Z,100193.81
2022-12-29T23:15:47.747Z,100268.00
2022-12-29T23:18:14.783Z,100381.63
2022-12-29T23:20:41.103Z,100265.69
2022-12-29T23:23:07.677Z,100328.03
2022-12-29T23:25:39.049Z,100295.13
2022-12-29T23:28:08.315Z,100378.13
2022-12-29T23:30:35.053Z,100365.00
2022-12-29T23:33:01.400Z,100358.53
2022-12-29T23:35:27.756Z,100390.16
2022-12-29T23:37:54.133Z,100396.31
2022-12-29T23:40:20.457Z,100362.53
2022-12-29T23:42:46.935Z,100371.50
2022-12-29T23:45:13.507Z,100354.44
2022-12-29T23:47:39.852Z,100408.16
2022-12-29T23:50:06.661Z,100399.72
2022-12-29T23:52:33.002Z,100405.09
2022-12-29T23:54:59.324Z,100439.69
2022-12-29T23:57:25.652Z,100445.63
2022-12-29T23:59:51.990Z,100449.00
